sensor_id;sensor_type;location;lat;lon;timestamp;pressure;altitude;pressure_sealevel;temperature;humidity
64886;BME280;51514;52.206;5.114;2022-10-16T00:00:42;100918.22;;;14.36;79.58
64886;BME280;51514;52.206;5.114;2022-10-16T00:03:09;100931.59;;;14.38;79.65
64886;BME280;51514;52.206;5.114;2022-10-16T00:05:42;100920.25;;;14.34;79.02
64886;BME280;51514;52.206;5.114;2022-10-16T00:08:10;100921.44;;;14.32;78.88
64886;BME280;51514;52.206;5.114;2022-10-16T00:10:36;100920.97;;;14.28;78.56
64886;BME280;51514;52.206;5.114;2022-10-16T00:13:03;100923.03;;;14.26;78.40
64886;BME280;51514;52.206;5.114;2022-10-16T00:15:33;100927.63;;;14.25;78.26
64886;BME280;51514;52.206;5.114;2022-10-16T00:18:01;100923.88;;;14.27;78.69
64886;BME280;51514;52.206;5.114;2022-10-16T00:20:26;100920.97;;;14.28;78.42
64886;BME280;51514;52.206;5.114;2022-10-16T00:22:52;100919.09;;;14.29;78.44
64886;BME280;51514;52.206;5.114;2022-10-16T00:25:17;100921.16;;;14.27;78.37
64886;BME280;51514;52.206;5.114;2022-10-16T00:27:42;100913.50;;;14.30;78.31
64886;BME280;51514;52.206;5.114;2022-10-16T00:30:08;100913.31;;;14.32;78.69
64886;BME280;51514;52.206;5.114;2022-10-16T00:32:33;100919.31;;;14.27;78.16
64886;BME280;51514;52.206;5.114;2022-10-16T00:34:59;100913.38;;;14.23;77.77
64886;BME280;51514;52.206;5.114;2022-10-16T00:37:24;100914.72;;;14.28;78.03
64886;BME280;51514;52.206;5.114;2022-10-16T00:39:49;100908.91;;;14.31;78.42
64886;BME280;51514;52.206;5.114;2022-10-16T00:42:17;100918.06;;;14.30;78.54
64886;BME280;51514;52.206;5.114;2022-10-16T00:44:52;100908.44;;;14.27;78.40
64886;BME280;51514;52.206;5.114;2022-10-16T00:47:34;100925.84;;;14.33;78.51
64886;BME280;51514;52.206;5.114;2022-10-16T00:52:41;100923.50;;;14.30;78.33
64886;BME280;51514;52.206;5.114;2022-10-16T00:55:09;100915.19;;;14.31;78.44
64886;BME280;51514;52.206;5.114;2022-10-16T00:57:34;100921.09;;;14.35;78.83
64886;BME280;51514;52.206;5.114;2022-10-16T01:00:00;100910.50;;;14.25;78.45
64886;BME280;51514;52.206;5.114;2022-10-16T01:02:26;100919.59;;;14.32;78.92
64886;BME280;51514;52.206;5.114;2022-10-16T01:04:52;100919.41;;;14.34;78.88
64886;BME280;51514;52.206;5.114;2022-10-16T01:12:45;100907.88;;;14.32;78.08
64886;BME280;51514;52.206;5.114;2022-10-16T01:17:53;100913.50;;;14.30;79.34
64886;BME280;51514;52.206;5.114;2022-10-16T01:20:31;100909.88;;;14.38;79.56
64886;BME280;51514;52.206;5.114;2022-10-16T01:23:07;100914.97;;;14.41;79.52
64886;BME280;51514;52.206;5.114;2022-10-16T01:28:21;100911.75;;;14.37;79.61
64886;BME280;51514;52.206;5.114;2022-10-16T01:30:52;100905.13;;;14.40;79.72
64886;BME280;51514;52.206;5.114;2022-10-16T01:33:24;100894.94;;;14.42;79.89
64886;BME280;51514;52.206;5.114;2022-10-16T01:35:59;100909.88;;;14.38;80.04
64886;BME280;51514;52.206;5.114;2022-10-16T01:38:34;100916.28;;;14.45;80.08
64886;BME280;51514;52.206;5.114;2022-10-16T01:41:04;100911.53;;;14.47;80.45
64886;BME280;51514;52.206;5.114;2022-10-16T01:43:42;100908.25;;;14.51;80.59
64886;BME280;51514;52.206;5.114;2022-10-16T01:46:10;100915.69;;;14.57;80.56
64886;BME280;51514;52.206;5.114;2022-10-16T01:48:36;100910.06;;;14.59;80.69
64886;BME280;51514;52.206;5.114;2022-10-16T01:51:12;100922.81;;;14.58;81.04
64886;BME280;51514;52.206;5.114;2022-10-16T01:53:40;100915.50;;;14.59;81.02
64886;BME280;51514;52.206;5.114;2022-10-16T01:56:09;100919.91;;;14.60;81.45
64886;BME280;51514;52.206;5.114;2022-10-16T01:58:41;100922.63;;;14.60;81.85
64886;BME280;51514;52.206;5.114;2022-10-16T02:01:11;100930.56;;;14.61;81.47
64886;BME280;51514;52.206;5.114;2022-10-16T02:03:40;100924.84;;;14.56;81.77
64886;BME280;51514;52.206;5.114;2022-10-16T02:06:07;100931.13;;;14.57;82.01
64886;BME280;51514;52.206;5.114;2022-10-16T02:08:33;100941.31;;;14.55;82.16
64886;BME280;51514;52.206;5.114;2022-10-16T02:10:59;100932.50;;;14.53;82.19
64886;BME280;51514;52.206;5.114;2022-10-16T02:16:03;100939.34;;;14.49;82.33
64886;BME280;51514;52.206;5.114;2022-10-16T02:18:29;100940.03;;;14.43;82.44
64886;BME280;51514;52.206;5.114;2022-10-16T02:20:59;100935.66;;;14.42;82.35
64886;BME280;51514;52.206;5.114;2022-10-16T02:23:57;100943.03;;;14.25;82.86
64886;BME280;51514;52.206;5.114;2022-10-16T02:26:35;100960.16;;;14.25;83.01
64886;BME280;51514;52.206;5.114;2022-10-16T02:29:05;100953.03;;;14.24;83.01
64886;BME280;51514;52.206;5.114;2022-10-16T02:31:35;100948.31;;;14.18;83.47
64886;BME280;51514;52.206;5.114;2022-10-16T02:34:04;100956.44;;;14.18;83.55
64886;BME280;51514;52.206;5.114;2022-10-16T02:36:32;100962.25;;;14.15;83.74
64886;BME280;51514;52.206;5.114;2022-10-16T02:38:59;100957.47;;;14.17;83.89
64886;BME280;51514;52.206;5.114;2022-10-16T02:41:29;100959.84;;;14.20;83.93
64886;BME280;51514;52.206;5.114;2022-10-16T02:43:54;100969.16;;;14.18;83.86
64886;BME280;51514;52.206;5.114;2022-10-16T02:46:20;100959.56;;;14.15;84.11
64886;BME280;51514;52.206;5.114;2022-10-16T02:48:46;100963.94;;;14.16;84.44
64886;BME280;51514;52.206;5.114;2022-10-16T02:51:11;100967.47;;;14.17;84.04
64886;BME280;51514;52.206;5.114;2022-10-16T02:53:36;100967.69;;;14.15;84.30
64886;BME280;51514;52.206;5.114;2022-10-16T02:56:02;100965.66;;;14.09;84.64
64886;BME280;51514;52.206;5.114;2022-10-16T02:58:27;100963.94;;;14.16;84.29
64886;BME280;51514;52.206;5.114;2022-10-16T03:00:52;100964.13;;;14.15;84.61
64886;BME280;51514;52.206;5.114;2022-10-16T03:03:18;100963.28;;;14.14;84.85
64886;BME280;51514;52.206;5.114;2022-10-16T03:05:46;100963.28;;;14.14;84.81
64886;BME280;51514;52.206;5.114;2022-10-16T03:08:12;100959.22;;;14.10;84.62
64886;BME280;51514;52.206;5.114;2022-10-16T03:10:40;100950.41;;;14.08;84.78
64886;BME280;51514;52.206;5.114;2022-10-16T03:13:06;100955.66;;;14.10;84.70
64886;BME280;51514;52.206;5.114;2022-10-16T03:15:31;100949.06;;;14.12;84.81
64886;BME280;51514;52.206;5.114;2022-10-16T03:17:59;100947.34;;;14.11;84.50
64886;BME280;51514;52.206;5.114;2022-10-16T03:20:25;100952.13;;;14.09;84.60
64886;BME280;51514;52.206;5.114;2022-10-16T03:22:50;100956.50;;;14.10;84.87
64886;BME280;51514;52.206;5.114;2022-10-16T03:25:16;100960.59;;;14.06;85.03
64886;BME280;51514;52.206;5.114;2022-10-16T03:27:44;100963.13;;;14.08;84.96
64886;BME280;51514;52.206;5.114;2022-10-16T03:30:09;100970.25;;;14.09;85.02
64886;BME280;51514;52.206;5.114;2022-10-16T03:32:35;100972.28;;;14.07;85.09
64886;BME280;51514;52.206;5.114;2022-10-16T03:35:00;100981.47;;;14.06;85.18
64886;BME280;51514;52.206;5.114;2022-10-16T03:37:25;100978.38;;;14.09;85.31
64886;BME280;51514;52.206;5.114;2022-10-16T03:39:51;100984.81;;;14.08;85.45
64886;BME280;51514;52.206;5.114;2022-10-16T03:42:16;100988.56;;;14.07;85.15
64886;BME280;51514;52.206;5.114;2022-10-16T03:44:42;100995.31;;;14.11;85.58
64886;BME280;51514;52.206;5.114;2022-10-16T03:47:07;100982.28;;;14.06;85.81
64886;BME280;51514;52.206;5.114;2022-10-16T03:49:32;100991.09;;;14.08;85.69
64886;BME280;51514;52.206;5.114;2022-10-16T03:51:58;100983.97;;;14.07;85.83
64886;BME280;51514;52.206;5.114;2022-10-16T03:54:23;100986.69;;;14.07;85.73
64886;BME280;51514;52.206;5.114;2022-10-16T03:56:48;100988.38;;;14.08;85.74
64886;BME280;51514;52.206;5.114;2022-10-16T03:59:14;100996.50;;;14.08;85.90
64886;BME280;51514;52.206;5.114;2022-10-16T04:01:40;100993.63;;;14.10;86.04
64886;BME280;51514;52.206;5.114;2022-10-16T04:04:05;100998.88;;;14.11;85.73
64886;BME280;51514;52.206;5.114;2022-10-16T04:06:31;101006.16;;;14.11;85.81
64886;BME280;51514;52.206;5.114;2022-10-16T04:08:56;100998.22;;;14.09;85.88
64886;BME280;51514;52.206;5.114;2022-10-16T04:11:22;100999.06;;;14.10;86.02
64886;BME280;51514;52.206;5.114;2022-10-16T04:13:47;101000.06;;;14.09;86.13
64886;BME280;51514;52.206;5.114;2022-10-16T04:16:13;101005.31;;;14.10;86.12
64886;BME280;51514;52.206;5.114;2022-10-16T04:18:39;101010.41;;;14.13;85.97
64886;BME280;51514;52.206;5.114;2022-10-16T04:21:05;101017.69;;;14.13;86.30
64886;BME280;51514;52.206;5.114;2022-10-16T04:23:31;101023.28;;;14.11;86.01
64886;BME280;51514;52.206;5.114;2022-10-16T04:25:57;101028.53;;;14.13;85.85
64886;BME280;51514;52.206;5.114;2022-10-16T04:28:22;101022.94;;;14.14;86.11
64886;BME280;51514;52.206;5.114;2022-10-16T04:30:48;101031.41;;;14.11;86.21
64886;BME280;51514;52.206;5.114;2022-10-16T04:33:13;101034.13;;;14.11;86.04
64886;BME280;51514;52.206;5.114;2022-10-16T04:35:38;101048.19;;;14.15;86.03
64886;BME280;51514;52.206;5.114;2022-10-16T04:38:04;101050.06;;;14.14;86.13
64886;BME280;51514;52.206;5.114;2022-10-16T04:40:29;101050.41;;;14.11;86.37
64886;BME280;51514;52.206;5.114;2022-10-16T04:42:58;101050.75;;;14.08;86.37
64886;BME280;51514;52.206;5.114;2022-10-16T04:45:24;101045.69;;;14.05;86.42
64886;BME280;51514;52.206;5.114;2022-10-16T04:47:49;101055.50;;;14.06;86.44
64886;BME280;51514;52.206;5.114;2022-10-16T04:50:14;101049.44;;;14.04;86.33
64886;BME280;51514;52.206;5.114;2022-10-16T04:52:40;101053.16;;;14.03;86.61
64886;BME280;51514;52.206;5.114;2022-10-16T04:55:05;101054.34;;;14.01;86.70
64886;BME280;51514;52.206;5.114;2022-10-16T04:57:33;101068.75;;;14.01;86.61
64886;BME280;51514;52.206;5.114;2022-10-16T04:59:59;101068.06;;;13.99;87.02
64886;BME280;51514;52.206;5.114;2022-10-16T05:02:25;101079.75;;;14.00;87.25
64886;BME280;51514;52.206;5.114;2022-10-16T05:04:51;101086.72;;;14.02;87.11
64886;BME280;51514;52.206;5.114;2022-10-16T05:07:18;101095.69;;;14.03;87.27
64886;BME280;51514;52.206;5.114;2022-10-16T05:09:44;101082.13;;;14.03;87.11
64886;BME280;51514;52.206;5.114;2022-10-16T05:12:09;101094.84;;;14.02;87.22
64886;BME280;51514;52.206;5.114;2022-10-16T05:14:34;101103.66;;;14.04;87.10
64886;BME280;51514;52.206;5.114;2022-10-16T05:17:00;101107.38;;;14.03;87.32
64886;BME280;51514;52.206;5.114;2022-10-16T05:19:25;101109.25;;;14.03;87.17
64886;BME280;51514;52.206;5.114;2022-10-16T05:21:51;101104.66;;;14.03;87.51
64886;BME280;51514;52.206;5.114;2022-10-16T05:24:16;101112.97;;;14.02;87.51
64886;BME280;51514;52.206;5.114;2022-10-16T05:26:41;101110.09;;;14.03;87.61
64886;BME280;51514;52.206;5.114;2022-10-16T05:29:07;101112.81;;;14.03;87.44
64886;BME280;51514;52.206;5.114;2022-10-16T05:31:32;101124.50;;;14.04;87.40
64886;BME280;51514;52.206;5.114;2022-10-16T05:34:01;101129.91;;;14.04;87.54
64886;BME280;51514;52.206;5.114;2022-10-16T05:36:27;101139.91;;;14.03;87.65
64886;BME280;51514;52.206;5.114;2022-10-16T05:38:52;101146.88;;;14.06;87.56
64886;BME280;51514;52.206;5.114;2022-10-16T05:41:18;101152.09;;;14.07;87.51
64886;BME280;51514;52.206;5.114;2022-10-16T05:43:47;101151.25;;;14.07;87.48
64886;BME280;51514;52.206;5.114;2022-10-16T05:46:12;101149.75;;;14.04;87.92
64886;BME280;51514;52.206;5.114;2022-10-16T05:48:38;101153.97;;;13.99;88.92
64886;BME280;51514;52.206;5.114;2022-10-16T05:51:05;101155.38;;;13.95;89.22
64886;BME280;51514;52.206;5.114;2022-10-16T05:53:34;101162.31;;;13.89;90.10
64886;BME280;51514;52.206;5.114;2022-10-16T05:56:00;101158.75;;;13.88;90.07
64886;BME280;51514;52.206;5.114;2022-10-16T05:58:32;101166.22;;;13.86;90.59
64886;BME280;51514;52.206;5.114;2022-10-16T06:01:00;101170.78;;;13.86;90.58
64886;BME280;51514;52.206;5.114;2022-10-16T06:03:26;101175.03;;;13.88;90.64
64886;BME280;51514;52.206;5.114;2022-10-16T06:05:52;101185.00;;;13.88;91.02
64886;BME280;51514;52.206;5.114;2022-10-16T06:08:19;101179.06;;;13.84;91.28
64886;BME280;51514;52.206;5.114;2022-10-16T06:10:45;101181.31;;;13.81;91.70
64886;BME280;51514;52.206;5.114;2022-10-16T06:13:11;101181.78;;;13.84;92.00
64886;BME280;51514;52.206;5.114;2022-10-16T06:15:38;101182.00;;;13.83;92.05
64886;BME280;51514;52.206;5.114;2022-10-16T06:18:05;101175.03;;;13.80;92.10
64886;BME280;51514;52.206;5.114;2022-10-16T06:20:30;101175.22;;;13.79;92.06
64886;BME280;51514;52.206;5.114;2022-10-16T06:22:55;101181.63;;;13.78;92.46
64886;BME280;51514;52.206;5.114;2022-10-16T06:25:21;101176.56;;;13.75;92.11
64886;BME280;51514;52.206;5.114;2022-10-16T06:27:47;101175.72;;;13.74;92.50
64886;BME280;51514;52.206;5.114;2022-10-16T06:30:12;101183.00;;;13.74;92.44
64886;BME280;51514;52.206;5.114;2022-10-16T06:32:37;101194.69;;;13.74;92.70
64886;BME280;51514;52.206;5.114;2022-10-16T06:35:03;101196.75;;;13.72;92.33
64886;BME280;51514;52.206;5.114;2022-10-16T06:37:28;101186.56;;;13.66;92.74
64886;BME280;51514;52.206;5.114;2022-10-16T06:39:53;101185.88;;;13.64;93.07
64886;BME280;51514;52.206;5.114;2022-10-16T06:42:19;101188.25;;;13.67;93.21
64886;BME280;51514;52.206;5.114;2022-10-16T06:44:44;101192.50;;;13.70;93.15
64886;BME280;51514;52.206;5.114;2022-10-16T06:47:10;101193.50;;;13.69;93.07
64886;BME280;51514;52.206;5.114;2022-10-16T06:49:35;101190.81;;;13.69;92.66
64886;BME280;51514;52.206;5.114;2022-10-16T06:52:00;101208.06;;;13.68;93.17
64886;BME280;51514;52.206;5.114;2022-10-16T06:54:26;101201.28;;;13.64;93.29
64886;BME280;51514;52.206;5.114;2022-10-16T06:56:52;101206.72;;;13.64;93.40
64886;BME280;51514;52.206;5.114;2022-10-16T06:59:19;101213.16;;;13.63;93.54
64886;BME280;51514;52.206;5.114;2022-10-16T07:01:45;101216.53;;;13.65;93.50
64886;BME280;51514;52.206;5.114;2022-10-16T07:04:10;101228.38;;;13.64;93.51
64886;BME280;51514;52.206;5.114;2022-10-16T07:06:35;101229.06;;;13.66;93.36
64886;BME280;51514;52.206;5.114;2022-10-16T07:09:04;101234.31;;;13.67;93.04
64886;BME280;51514;52.206;5.114;2022-10-16T07:11:30;101242.59;;;13.74;92.66
64886;BME280;51514;52.206;5.114;2022-10-16T07:13:58;101246.00;;;13.76;92.17
64886;BME280;51514;52.206;5.114;2022-10-16T07:16:27;101240.25;;;13.79;91.90
64886;BME280;51514;52.206;5.114;2022-10-16T07:18:54;101249.06;;;13.81;91.79
64886;BME280;51514;52.206;5.114;2022-10-16T07:21:24;101257.88;;;13.83;91.79
64886;BME280;51514;52.206;5.114;2022-10-16T07:23:55;101262.09;;;13.85;91.42
64886;BME280;51514;52.206;5.114;2022-10-16T07:26:22;101260.22;;;13.86;91.03
64886;BME280;51514;52.206;5.114;2022-10-16T07:28:47;101271.44;;;13.83;90.44
64886;BME280;51514;52.206;5.114;2022-10-16T07:31:14;101264.81;;;13.85;90.85
64886;BME280;51514;52.206;5.114;2022-10-16T07:33:41;101279.72;;;13.89;90.93
64886;BME280;51514;52.206;5.114;2022-10-16T07:36:11;101286.31;;;13.87;90.58
64886;BME280;51514;52.206;5.114;2022-10-16T07:38:36;101290.56;;;13.89;90.51
64886;BME280;51514;52.206;5.114;2022-10-16T07:41:06;101294.66;;;13.94;90.69
64886;BME280;51514;52.206;5.114;2022-10-16T07:43:33;101303.63;;;14.02;90.56
64886;BME280;51514;52.206;5.114;2022-10-16T07:45:58;101312.91;;;14.08;90.41
64886;BME280;51514;52.206;5.114;2022-10-16T07:48:27;101329.53;;;14.13;90.25
64886;BME280;51514;52.206;5.114;2022-10-16T07:50:57;101338.19;;;14.16;89.97
64886;BME280;51514;52.206;5.114;2022-10-16T07:53:22;101329.38;;;14.22;90.24
64886;BME280;51514;52.206;5.114;2022-10-16T07:55:48;101325.97;;;14.29;89.35
64886;BME280;51514;52.206;5.114;2022-10-16T07:58:13;101332.41;;;14.36;89.90
64886;BME280;51514;52.206;5.114;2022-10-16T08:00:39;101327.66;;;14.38;89.63
64886;BME280;51514;52.206;5.114;2022-10-16T08:03:04;101326.66;;;14.47;90.20
64886;BME280;51514;52.206;5.114;2022-10-16T08:05:31;101338.19;;;14.49;89.88
64886;BME280;51514;52.206;5.114;2022-10-16T08:07:57;101340.03;;;14.56;89.95
64886;BME280;51514;52.206;5.114;2022-10-16T08:10:25;101338.84;;;14.59;89.96
64886;BME280;51514;52.206;5.114;2022-10-16T08:12:51;101351.03;;;14.63;89.76
64886;BME280;51514;52.206;5.114;2022-10-16T08:15:16;101350.69;;;14.66;89.63
64886;BME280;51514;52.206;5.114;2022-10-16T08:17:42;101363.09;;;14.69;89.88
64886;BME280;51514;52.206;5.114;2022-10-16T08:20:08;101358.81;;;14.74;90.05
64886;BME280;51514;52.206;5.114;2022-10-16T08:22:33;101360.31;;;14.85;89.78
64886;BME280;51514;52.206;5.114;2022-10-16T08:24:59;101364.91;;;14.92;89.96
64886;BME280;51514;52.206;5.114;2022-10-16T08:27:24;101362.66;;;14.96;89.31
64886;BME280;51514;52.206;5.114;2022-10-16T08:29:49;101368.44;;;15.01;89.04
64886;BME280;51514;52.206;5.114;2022-10-16T08:32:15;101365.84;;;15.08;89.13
64886;BME280;51514;52.206;5.114;2022-10-16T08:34:41;101369.75;;;15.13;89.02
64886;BME280;51514;52.206;5.114;2022-10-16T08:37:06;101373.81;;;15.09;88.15
64886;BME280;51514;52.206;5.114;2022-10-16T08:39:33;101384.47;;;15.19;88.54
64886;BME280;51514;52.206;5.114;2022-10-16T08:42:12;101382.78;;;15.18;88.11
64886;BME280;51514;52.206;5.114;2022-10-16T08:50:28;101394.25;;;15.36;87.25
64886;BME280;51514;52.206;5.114;2022-10-16T08:52:55;101403.94;;;15.39;86.39
64886;BME280;51514;52.206;5.114;2022-10-16T08:55:38;101412.41;;;15.44;86.03
64886;BME280;51514;52.206;5.114;2022-10-16T08:58:20;101408.78;;;15.51;86.46
64886;BME280;51514;52.206;5.114;2022-10-16T09:01:19;101414.91;;;15.53;85.65
64886;BME280;51514;52.206;5.114;2022-10-16T09:09:18;101421.41;;;15.83;85.55
64886;BME280;51514;52.206;5.114;2022-10-16T09:12:00;101435.34;;;15.80;84.30
64886;BME280;51514;52.206;5.114;2022-10-16T09:15:05;101447.06;;;15.81;84.30
64886;BME280;51514;52.206;5.114;2022-10-16T09:17:43;101447.56;;;15.84;84.37
64886;BME280;51514;52.206;5.114;2022-10-16T09:22:48;101463.13;;;15.98;85.05
64886;BME280;51514;52.206;5.114;2022-10-16T09:25:17;101467.19;;;16.02;84.06
64886;BME280;51514;52.206;5.114;2022-10-16T09:27:48;101468.88;;;16.03;83.81
64886;BME280;51514;52.206;5.114;2022-10-16T09:30:18;101453.34;;;16.12;83.31
64886;BME280;51514;52.206;5.114;2022-10-16T09:32:48;101461.09;;;16.23;83.86
64886;BME280;51514;52.206;5.114;2022-10-16T09:35:21;101459.34;;;16.30;83.33
64886;BME280;51514;52.206;5.114;2022-10-16T09:37:50;101462.53;;;16.34;82.16
64886;BME280;51514;52.206;5.114;2022-10-16T09:40:28;101465.25;;;16.34;81.91
64886;BME280;51514;52.206;5.114;2022-10-16T09:42:57;101466.13;;;16.34;81.34
64886;BME280;51514;52.206;5.114;2022-10-16T09:45:28;101471.53;;;16.42;81.81
64886;BME280;51514;52.206;5.114;2022-10-16T09:47:54;101468.56;;;16.52;81.49
64886;BME280;51514;52.206;5.114;2022-10-16T09:50:23;101466.59;;;16.61;81.96
64886;BME280;51514;52.206;5.114;2022-10-16T09:52:50;101466.38;;;16.70;81.05
64886;BME280;51514;52.206;5.114;2022-10-16T09:55:17;101471.28;;;16.75;80.55
64886;BME280;51514;52.206;5.114;2022-10-16T09:57:50;101471.06;;;16.76;79.95
64886;BME280;51514;52.206;5.114;2022-10-16T10:00:17;101487.19;;;16.86;79.94
64886;BME280;51514;52.206;5.114;2022-10-16T10:02:43;101486.69;;;16.83;78.62
64886;BME280;51514;52.206;5.114;2022-10-16T10:05:27;101493.06;;;16.75;78.34
64886;BME280;51514;52.206;5.114;2022-10-16T10:08:03;101481.50;;;16.73;78.70
64886;BME280;51514;52.206;5.114;2022-10-16T10:10:38;101488.47;;;16.75;79.52
64886;BME280;51514;52.206;5.114;2022-10-16T10:13:21;101490.34;;;16.75;78.56
64886;BME280;51514;52.206;5.114;2022-10-16T10:15:46;101489.69;;;16.73;78.62
64886;BME280;51514;52.206;5.114;2022-10-16T10:18:17;101493.44;;;16.72;78.71
64886;BME280;51514;52.206;5.114;2022-10-16T10:20:43;101492.41;;;16.73;78.47
64886;BME280;51514;52.206;5.114;2022-10-16T10:23:24;101485.25;;;16.72;78.50
64886;BME280;51514;52.206;5.114;2022-10-16T10:28:48;101510.44;;;16.74;78.38
64886;BME280;51514;52.206;5.114;2022-10-16T10:36:38;101509.69;;;17.32;78.23
64886;BME280;51514;52.206;5.114;2022-10-16T10:39:14;101519.41;;;17.35;76.80
64886;BME280;51514;52.206;5.114;2022-10-16T10:42:02;101522.88;;;17.43;75.22
64886;BME280;51514;52.206;5.114;2022-10-16T10:55:09;101526.88;;;17.70;75.76
64886;BME280;51514;52.206;5.114;2022-10-16T11:00:30;101526.94;;;17.62;75.48
64886;BME280;51514;52.206;5.114;2022-10-16T11:05:46;101528.44;;;17.50;75.19
64886;BME280;51514;52.206;5.114;2022-10-16T11:08:33;101540.06;;;17.44;72.59
64886;BME280;51514;52.206;5.114;2022-10-16T11:11:05;101543.09;;;17.49;71.48
64886;BME280;51514;52.206;5.114;2022-10-16T11:13:42;101545.47;;;17.67;72.92
64886;BME280;51514;52.206;5.114;2022-10-16T11:16:28;101544.47;;;17.82;73.57
64886;BME280;51514;52.206;5.114;2022-10-16T11:19:02;101536.91;;;17.99;72.71
64886;BME280;51514;52.206;5.114;2022-10-16T11:21:30;101548.47;;;18.16;72.45
64886;BME280;51514;52.206;5.114;2022-10-16T11:24:04;101544.19;;;18.28;70.95
64886;BME280;51514;52.206;5.114;2022-10-16T11:26:35;101552.09;;;18.38;69.36
64886;BME280;51514;52.206;5.114;2022-10-16T11:29:10;101554.31;;;18.49;70.07
64886;BME280;51514;52.206;5.114;2022-10-16T11:31:45;101561.44;;;18.50;67.69
64886;BME280;51514;52.206;5.114;2022-10-16T11:34:22;101563.41;;;18.56;68.60
64886;BME280;51514;52.206;5.114;2022-10-16T11:37:11;101561.91;;;18.68;67.81
64886;BME280;51514;52.206;5.114;2022-10-16T11:39:38;101573.53;;;18.77;67.55
64886;BME280;51514;52.206;5.114;2022-10-16T11:42:10;101572.22;;;18.73;64.15
64886;BME280;51514;52.206;5.114;2022-10-16T11:47:56;101574.53;;;18.69;63.52
64886;BME280;51514;52.206;5.114;2022-10-16T11:50:02;101569.44;;;18.66;63.88
64886;BME280;51514;52.206;5.114;2022-10-16T11:57:34;101580.38;;;18.51;60.66
64886;BME280;51514;52.206;5.114;2022-10-16T12:00:14;101577.38;;;18.46;61.51
64886;BME280;51514;52.206;5.114;2022-10-16T12:08:14;101583.91;;;18.31;60.53
64886;BME280;51514;52.206;5.114;2022-10-16T12:10:44;101577.41;;;18.32;60.86
64886;BME280;51514;52.206;5.114;2022-10-16T12:13:36;101580.03;;;18.40;60.67
64886;BME280;51514;52.206;5.114;2022-10-16T12:18:31;101591.56;;;18.56;60.59
64886;BME280;51514;52.206;5.114;2022-10-16T12:20:58;101598.34;;;18.60;61.76
64886;BME280;51514;52.206;5.114;2022-10-16T12:23:29;101588.75;;;18.65;61.90
64886;BME280;51514;52.206;5.114;2022-10-16T12:25:56;101597.22;;;18.70;62.88
64886;BME280;51514;52.206;5.114;2022-10-16T12:28:26;101594.75;;;18.75;61.97
64886;BME280;51514;52.206;5.114;2022-10-16T12:30:58;101591.25;;;18.81;61.34
64886;BME280;51514;52.206;5.114;2022-10-16T12:33:29;101592.72;;;18.83;60.46
64886;BME280;51514;52.206;5.114;2022-10-16T12:35:57;101601.97;;;18.82;59.28
64886;BME280;51514;52.206;5.114;2022-10-16T12:38:45;101606.19;;;18.85;60.42
64886;BME280;51514;52.206;5.114;2022-10-16T12:41:11;101610.25;;;18.89;60.79
64886;BME280;51514;52.206;5.114;2022-10-16T12:43:46;101599.69;;;18.86;59.39
64886;BME280;51514;52.206;5.114;2022-10-16T12:48:40;101594.38;;;18.78;59.01
64886;BME280;51514;52.206;5.114;2022-10-16T12:56:45;101598.44;;;18.67;60.79
64886;BME280;51514;52.206;5.114;2022-10-16T12:59:47;101604.28;;;18.64;61.96
64886;BME280;51514;52.206;5.114;2022-10-16T13:07:32;101601.13;;;18.46;60.31
64886;BME280;51514;52.206;5.114;2022-10-16T13:10:09;101618.91;;;18.42;60.64
64886;BME280;51514;52.206;5.114;2022-10-16T13:15:32;101605.06;;;18.43;61.19
64886;BME280;51514;52.206;5.114;2022-10-16T13:18:14;101608.00;;;18.42;61.89
64886;BME280;51514;52.206;5.114;2022-10-16T13:23:36;101613.06;;;18.45;62.27
64886;BME280;51514;52.206;5.114;2022-10-16T13:28:49;101618.34;;;18.46;62.86
64886;BME280;51514;52.206;5.114;2022-10-16T13:31:18;101626.72;;;18.45;63.33
64886;BME280;51514;52.206;5.114;2022-10-16T13:33:50;101636.63;;;18.46;63.87
64886;BME280;51514;52.206;5.114;2022-10-16T13:38:46;101641.59;;;18.42;62.35
64886;BME280;51514;52.206;5.114;2022-10-16T13:41:17;101644.25;;;18.36;61.59
64886;BME280;51514;52.206;5.114;2022-10-16T13:43:46;101645.47;;;18.33;62.33
64886;BME280;51514;52.206;5.114;2022-10-16T13:46:13;101643.53;;;18.27;63.03
64886;BME280;51514;52.206;5.114;2022-10-16T13:48:40;101649.63;;;18.29;63.52
64886;BME280;51514;52.206;5.114;2022-10-16T13:51:20;101650.03;;;18.26;64.17
64886;BME280;51514;52.206;5.114;2022-10-16T13:53:45;101651.72;;;18.27;63.89
64886;BME280;51514;52.206;5.114;2022-10-16T13:56:16;101647.28;;;18.26;64.13
64886;BME280;51514;52.206;5.114;2022-10-16T13:58:43;101652.75;;;18.26;63.52
64886;BME280;51514;52.206;5.114;2022-10-16T14:01:22;101659.63;;;18.22;62.68
64886;BME280;51514;52.206;5.114;2022-10-16T14:03:49;101649.06;;;18.19;63.54
64886;BME280;51514;52.206;5.114;2022-10-16T14:06:19;101656.22;;;18.20;64.20
64886;BME280;51514;52.206;5.114;2022-10-16T14:08:53;101658.03;;;18.13;63.64
64886;BME280;51514;52.206;5.114;2022-10-16T14:11:23;101644.75;;;18.10;63.13
64886;BME280;51514;52.206;5.114;2022-10-16T14:13:49;101650.38;;;18.08;63.38
64886;BME280;51514;52.206;5.114;2022-10-16T14:16:21;101653.50;;;18.05;62.85
64886;BME280;51514;52.206;5.114;2022-10-16T14:19:06;101649.44;;;18.01;62.82
64886;BME280;51514;52.206;5.114;2022-10-16T14:21:32;101649.63;;;18.00;63.27
64886;BME280;51514;52.206;5.114;2022-10-16T14:23:58;101644.19;;;18.00;63.26
64886;BME280;51514;52.206;5.114;2022-10-16T14:26:26;101643.91;;;17.95;63.46
64886;BME280;51514;52.206;5.114;2022-10-16T14:29:25;101639.47;;;17.94;64.81
64886;BME280;51514;52.206;5.114;2022-10-16T14:32:20;101653.31;;;17.92;64.46
64886;BME280;51514;52.206;5.114;2022-10-16T14:34:53;101651.78;;;17.90;63.43